sensor_id;sensor_type;location;lat;lon;timestamp;P1;durP1;ratioP1;P2;durP2;ratioP2
8500;SDS011;4288;48.484;10.024;2023-04-25T00:00:21;13.10;;;5.67;;
8500;SDS011;4288;48.484;10.024;2023-04-25T00:02:48;15.77;;;4.90;;
8500;SDS011;4288;48.484;10.024;2023-04-25T00:05:15;12.83;;;5.80;;
8500;SDS011;4288;48.484;10.024;2023-04-25T00:07:43;16.00;;;5.20;;
8500;SDS011;4288;48.484;10.024;2023-04-25T00:10:11;14.90;;;5.13;;
8500;SDS011;4288;48.484;10.024;2023-04-25T00:12:38;10.30;;;4.60;;
8500;SDS011;4288;48.484;10.024;2023-04-25T00:15:05;12.03;;;4.30;;
8500;SDS011;4288;48.484;10.024;2023-04-25T00:17:33;10.77;;;4.57;;
8500;SDS011;4288;48.484;10.024;2023-04-25T00:20:01;10.73;;;4.10;;
8500;SDS011;4288;48.484;10.024;2023-04-25T00:22:30;14.07;;;4.90;;
8500;SDS011;4288;48.484;10.024;2023-04-25T00:24:56;8.37;;;4.40;;
8500;SDS011;4288;48.484;10.024;2023-04-25T00:27:26;17.00;;;4.83;;
8500;SDS011;4288;48.484;10.024;2023-04-25T00:29:53;11.07;;;4.20;;
8500;SDS011;4288;48.484;10.024;2023-04-25T00:32:20;12.73;;;4.43;;
8500;SDS011;4288;48.484;10.024;2023-04-25T00:34:47;9.50;;;4.57;;
8500;SDS011;4288;48.484;10.024;2023-04-25T00:37:13;9.80;;;4.30;;
8500;SDS011;4288;48.484;10.024;2023-04-25T00:39:40;8.93;;;4.00;;
8500;SDS011;4288;48.484;10.024;2023-04-25T00:42:07;10.13;;;4.50;;
8500;SDS011;4288;48.484;10.024;2023-04-25T00:44:36;10.83;;;4.00;;
8500;SDS011;4288;48.484;10.024;2023-04-25T00:47:03;8.20;;;4.47;;
8500;SDS011;4288;48.484;10.024;2023-04-25T00:49:31;11.13;;;5.20;;
8500;SDS011;4288;48.484;10.024;2023-04-25T00:51:57;7.50;;;4.10;;
8500;SDS011;4288;48.484;10.024;2023-04-25T00:54:24;12.63;;;4.77;;
8500;SDS011;4288;48.484;10.024;2023-04-25T00:56:52;10.90;;;3.90;;
8500;SDS011;4288;48.484;10.024;2023-04-25T00:59:19;9.60;;;4.07;;
8500;SDS011;4288;48.484;10.024;2023-04-25T01:01:47;9.67;;;4.30;;
8500;SDS011;4288;48.484;10.024;2023-04-25T01:04:14;12.37;;;5.10;;
8500;SDS011;4288;48.484;10.024;2023-04-25T01:06:41;10.13;;;4.70;;
8500;SDS011;4288;48.484;10.024;2023-04-25T01:09:08;10.80;;;4.40;;
8500;SDS011;4288;48.484;10.024;2023-04-25T01:11:35;13.50;;;4.87;;
8500;SDS011;4288;48.484;10.024;2023-04-25T01:14:02;6.40;;;3.47;;
8500;SDS011;4288;48.484;10.024;2023-04-25T01:16:28;10.63;;;4.53;;
8500;SDS011;4288;48.484;10.024;2023-04-25T01:18:57;12.40;;;3.63;;
8500;SDS011;4288;48.484;10.024;2023-04-25T01:21:25;10.07;;;3.93;;
8500;SDS011;4288;48.484;10.024;2023-04-25T01:23:54;6.70;;;3.03;;
8500;SDS011;4288;48.484;10.024;2023-04-25T01:26:21;6.83;;;3.67;;
8500;SDS011;4288;48.484;10.024;2023-04-25T01:28:49;11.77;;;3.67;;
8500;SDS011;4288;48.484;10.024;2023-04-25T01:31:15;15.80;;;4.00;;
8500;SDS011;4288;48.484;10.024;2023-04-25T01:33:43;11.90;;;4.37;;
8500;SDS011;4288;48.484;10.024;2023-04-25T01:36:10;9.30;;;3.97;;
8500;SDS011;4288;48.484;10.024;2023-04-25T01:38:38;8.90;;;4.00;;
8500;SDS011;4288;48.484;10.024;2023-04-25T01:41:06;6.13;;;3.50;;
8500;SDS011;4288;48.484;10.024;2023-04-25T01:43:33;9.27;;;3.73;;
8500;SDS011;4288;48.484;10.024;2023-04-25T01:46:00;11.07;;;3.70;;
8500;SDS011;4288;48.484;10.024;2023-04-25T01:48:27;10.40;;;3.17;;
8500;SDS011;4288;48.484;10.024;2023-04-25T01:50:54;8.63;;;3.70;;
8500;SDS011;4288;48.484;10.024;2023-04-25T01:53:21;12.80;;;4.00;;
8500;SDS011;4288;48.484;10.024;2023-04-25T01:55:50;7.10;;;3.23;;
8500;SDS011;4288;48.484;10.024;2023-04-25T01:58:16;6.00;;;3.03;;
8500;SDS011;4288;48.484;10.024;2023-04-25T02:00:43;9.43;;;4.00;;
8500;SDS011;4288;48.484;10.024;2023-04-25T02:03:10;12.30;;;3.40;;
8500;SDS011;4288;48.484;10.024;2023-04-25T02:05:37;6.40;;;3.50;;
8500;SDS011;4288;48.484;10.024;2023-04-25T02:08:05;8.53;;;3.50;;
8500;SDS011;4288;48.484;10.024;2023-04-25T02:10:33;6.17;;;3.20;;
8500;SDS011;4288;48.484;10.024;2023-04-25T02:13:01;9.40;;;3.40;;
8500;SDS011;4288;48.484;10.024;2023-04-25T02:15:29;4.93;;;2.60;;
8500;SDS011;4288;48.484;10.024;2023-04-25T02:17:56;7.67;;;3.07;;
8500;SDS011;4288;48.484;10.024;2023-04-25T02:20:25;6.70;;;2.87;;
8500;SDS011;4288;48.484;10.024;2023-04-25T02:22:52;5.93;;;3.10;;
8500;SDS011;4288;48.484;10.024;2023-04-25T02:25:19;6.47;;;3.30;;
8500;SDS011;4288;48.484;10.024;2023-04-25T02:27:47;7.50;;;3.27;;
8500;SDS011;4288;48.484;10.024;2023-04-25T02:30:15;8.00;;;3.20;;
8500;SDS011;4288;48.484;10.024;2023-04-25T02:32:42;8.53;;;3.23;;
8500;SDS011;4288;48.484;10.024;2023-04-25T02:35:08;4.27;;;2.83;;
8500;SDS011;4288;48.484;10.024;2023-04-25T02:37:38;6.27;;;3.10;;
8500;SDS011;4288;48.484;10.024;2023-04-25T02:40:05;11.47;;;3.60;;
8500;SDS011;4288;48.484;10.024;2023-04-25T02:42:33;4.50;;;2.93;;
8500;SDS011;4288;48.484;10.024;2023-04-25T02:45:01;4.47;;;2.53;;
8500;SDS011;4288;48.484;10.024;2023-04-25T02:47:29;3.93;;;3.53;;
8500;SDS011;4288;48.484;10.024;2023-04-25T02:49:56;7.27;;;3.33;;
8500;SDS011;4288;48.484;10.024;2023-04-25T02:52:23;6.23;;;3.40;;
8500;SDS011;4288;48.484;10.024;2023-04-25T02:54:50;5.80;;;3.40;;
8500;SDS011;4288;48.484;10.024;2023-04-25T02:57:17;7.23;;;3.20;;
8500;SDS011;4288;48.484;10.024;2023-04-25T02:59:44;8.97;;;2.93;;
8500;SDS011;4288;48.484;10.024;2023-04-25T03:02:10;10.73;;;4.00;;
8500;SDS011;4288;48.484;10.024;2023-04-25T03:04:39;5.73;;;3.10;;
8500;SDS011;4288;48.484;10.024;2023-04-25T03:07:06;12.83;;;3.37;;
8500;SDS011;4288;48.484;10.024;2023-04-25T03:09:32;6.40;;;2.70;;
8500;SDS011;4288;48.484;10.024;2023-04-25T03:11:59;6.50;;;3.50;;
8500;SDS011;4288;48.484;10.024;2023-04-25T03:14:26;8.20;;;2.90;;
8500;SDS011;4288;48.484;10.024;2023-04-25T03:16:53;5.87;;;3.20;;
8500;SDS011;4288;48.484;10.024;2023-04-25T03:19:20;5.73;;;2.87;;
8500;SDS011;4288;48.484;10.024;2023-04-25T03:21:48;5.53;;;2.60;;
8500;SDS011;4288;48.484;10.024;2023-04-25T03:24:15;8.33;;;2.93;;
8500;SDS011;4288;48.484;10.024;2023-04-25T03:26:42;5.33;;;3.17;;
8500;SDS011;4288;48.484;10.024;2023-04-25T03:29:08;7.70;;;2.70;;
8500;SDS011;4288;48.484;10.024;2023-04-25T03:31:35;7.73;;;2.33;;
8500;SDS011;4288;48.484;10.024;2023-04-25T03:34:02;9.83;;;2.70;;
8500;SDS011;4288;48.484;10.024;2023-04-25T03:36:29;8.70;;;2.97;;
8500;SDS011;4288;48.484;10.024;2023-04-25T03:38:57;4.77;;;2.90;;
8500;SDS011;4288;48.484;10.024;2023-04-25T03:41:24;8.33;;;2.77;;
8500;SDS011;4288;48.484;10.024;2023-04-25T03:43:51;6.10;;;3.33;;
8500;SDS011;4288;48.484;10.024;2023-04-25T03:46:18;7.83;;;2.80;;
8500;SDS011;4288;48.484;10.024;2023-04-25T03:48:45;3.03;;;1.97;;
8500;SDS011;4288;48.484;10.024;2023-04-25T03:51:12;10.70;;;3.00;;
8500;SDS011;4288;48.484;10.024;2023-04-25T03:53:38;5.10;;;2.60;;
8500;SDS011;4288;48.484;10.024;2023-04-25T03:56:07;6.10;;;2.77;;
8500;SDS011;4288;48.484;10.024;2023-04-25T03:58:34;6.80;;;2.97;;
8500;SDS011;4288;48.484;10.024;2023-04-25T04:01:01;5.37;;;2.60;;
8500;SDS011;4288;48.484;10.024;2023-04-25T04:03:32;3.80;;;2.77;;
8500;SDS011;4288;48.484;10.024;2023-04-25T04:05:59;4.37;;;2.60;;
8500;SDS011;4288;48.484;10.024;2023-04-25T04:08:26;5.80;;;2.70;;
8500;SDS011;4288;48.484;10.024;2023-04-25T04:10:52;3.90;;;2.37;;
8500;SDS011;4288;48.484;10.024;2023-04-25T04:13:21;4.90;;;2.50;;
8500;SDS011;4288;48.484;10.024;2023-04-25T04:15:47;11.93;;;3.40;;
8500;SDS011;4288;48.484;10.024;2023-04-25T04:18:14;4.33;;;2.30;;
8500;SDS011;4288;48.484;10.024;2023-04-25T04:20:41;6.80;;;2.33;;
8500;SDS011;4288;48.484;10.024;2023-04-25T04:23:08;2.60;;;1.83;;
8500;SDS011;4288;48.484;10.024;2023-04-25T04:25:35;2.57;;;2.13;;
8500;SDS011;4288;48.484;10.024;2023-04-25T04:28:02;7.60;;;2.73;;
8500;SDS011;4288;48.484;10.024;2023-04-25T04:30:31;5.63;;;2.80;;
8500;SDS011;4288;48.484;10.024;2023-04-25T04:33:01;5.47;;;2.03;;
8500;SDS011;4288;48.484;10.024;2023-04-25T04:35:28;2.93;;;1.87;;
8500;SDS011;4288;48.484;10.024;2023-04-25T04:37:55;3.90;;;2.10;;
8500;SDS011;4288;48.484;10.024;2023-04-25T04:40:22;3.90;;;1.90;;
8500;SDS011;4288;48.484;10.024;2023-04-25T04:42:50;5.10;;;3.23;;
8500;SDS011;4288;48.484;10.024;2023-04-25T04:45:18;4.87;;;2.60;;
8500;SDS011;4288;48.484;10.024;2023-04-25T04:47:46;4.50;;;2.27;;
8500;SDS011;4288;48.484;10.024;2023-04-25T04:50:14;5.50;;;2.10;;
8500;SDS011;4288;48.484;10.024;2023-04-25T04:52:41;7.50;;;2.50;;
8500;SDS011;4288;48.484;10.024;2023-04-25T04:55:08;4.80;;;2.63;;
8500;SDS011;4288;48.484;10.024;2023-04-25T04:57:35;3.70;;;2.20;;
8500;SDS011;4288;48.484;10.024;2023-04-25T05:00:04;4.70;;;1.80;;
8500;SDS011;4288;48.484;10.024;2023-04-25T05:02:35;4.10;;;2.00;;
8500;SDS011;4288;48.484;10.024;2023-04-25T05:05:04;4.90;;;2.40;;
8500;SDS011;4288;48.484;10.024;2023-04-25T05:07:31;2.93;;;2.00;;
8500;SDS011;4288;48.484;10.024;2023-04-25T05:09:58;5.77;;;2.70;;
8500;SDS011;4288;48.484;10.024;2023-04-25T05:12:25;4.47;;;2.57;;
8500;SDS011;4288;48.484;10.024;2023-04-25T05:14:51;4.27;;;2.20;;
8500;SDS011;4288;48.484;10.024;2023-04-25T05:17:19;8.30;;;2.87;;
8500;SDS011;4288;48.484;10.024;2023-04-25T05:19:46;3.00;;;2.20;;
8500;SDS011;4288;48.484;10.024;2023-04-25T05:22:14;3.20;;;2.10;;
8500;SDS011;4288;48.484;10.024;2023-04-25T05:24:41;5.80;;;2.00;;
8500;SDS011;4288;48.484;10.024;2023-04-25T05:27:08;2.80;;;1.87;;
8500;SDS011;4288;48.484;10.024;2023-04-25T05:29:35;4.77;;;2.17;;
8500;SDS011;4288;48.484;10.024;2023-04-25T05:32:01;3.63;;;2.27;;
8500;SDS011;4288;48.484;10.024;2023-04-25T05:34:28;4.07;;;1.93;;
8500;SDS011;4288;48.484;10.024;2023-04-25T05:36:55;3.43;;;1.97;;
8500;SDS011;4288;48.484;10.024;2023-04-25T05:39:23;5.77;;;1.93;;
8500;SDS011;4288;48.484;10.024;2023-04-25T05:41:51;4.13;;;2.43;;
8500;SDS011;4288;48.484;10.024;2023-04-25T05:44:18;3.90;;;2.20;;
8500;SDS011;4288;48.484;10.024;2023-04-25T05:46:45;9.20;;;2.37;;
8500;SDS011;4288;48.484;10.024;2023-04-25T05:49:12;5.13;;;1.93;;
8500;SDS011;4288;48.484;10.024;2023-04-25T05:51:39;3.23;;;1.90;;
8500;SDS011;4288;48.484;10.024;2023-04-25T05:54:05;4.30;;;2.20;;
8500;SDS011;4288;48.484;10.024;2023-04-25T05:56:34;4.23;;;2.13;;
8500;SDS011;4288;48.484;10.024;2023-04-25T05:59:00;4.53;;;2.17;;
8500;SDS011;4288;48.484;10.024;2023-04-25T06:01:28;6.40;;;2.40;;
8500;SDS011;4288;48.484;10.024;2023-04-25T06:03:55;5.53;;;2.23;;
8500;SDS011;4288;48.484;10.024;2023-04-25T06:06:21;4.97;;;2.80;;
8500;SDS011;4288;48.484;10.024;2023-04-25T06:08:48;5.23;;;2.57;;
8500;SDS011;4288;48.484;10.024;2023-04-25T06:11:15;5.50;;;2.77;;
8500;SDS011;4288;48.484;10.024;2023-04-25T06:13:44;7.90;;;2.70;;
8500;SDS011;4288;48.484;10.024;2023-04-25T06:16:11;7.67;;;2.70;;
8500;SDS011;4288;48.484;10.024;2023-04-25T06:18:38;3.20;;;2.30;;
8500;SDS011;4288;48.484;10.024;2023-04-25T06:21:05;7.57;;;3.20;;
8500;SDS011;4288;48.484;10.024;2023-04-25T06:23:32;7.53;;;2.33;;
8500;SDS011;4288;48.484;10.024;2023-04-25T06:25:59;12.20;;;3.83;;
8500;SDS011;4288;48.484;10.024;2023-04-25T06:28:25;12.63;;;4.43;;
8500;SDS011;4288;48.484;10.024;2023-04-25T06:30:54;8.47;;;5.10;;
8500;SDS011;4288;48.484;10.024;2023-04-25T06:33:20;13.43;;;6.67;;
8500;SDS011;4288;48.484;10.024;2023-04-25T06:35:49;9.37;;;4.70;;
8500;SDS011;4288;48.484;10.024;2023-04-25T06:38:16;11.37;;;5.83;;
8500;SDS011;4288;48.484;10.024;2023-04-25T06:40:42;6.17;;;4.23;;
8500;SDS011;4288;48.484;10.024;2023-04-25T06:43:09;9.80;;;4.60;;
8500;SDS011;4288;48.484;10.024;2023-04-25T06:45:36;13.07;;;4.87;;
8500;SDS011;4288;48.484;10.024;2023-04-25T06:48:05;11.73;;;3.60;;
8500;SDS011;4288;48.484;10.024;2023-04-25T06:50:32;7.23;;;3.70;;
8500;SDS011;4288;48.484;10.024;2023-04-25T06:52:59;10.13;;;3.30;;
8500;SDS011;4288;48.484;10.024;2023-04-25T06:55:26;7.70;;;3.70;;
8500;SDS011;4288;48.484;10.024;2023-04-25T06:57:53;10.50;;;3.07;;
8500;SDS011;4288;48.484;10.024;2023-04-25T07:00:20;9.70;;;3.10;;
8500;SDS011;4288;48.484;10.024;2023-04-25T07:02:47;15.60;;;3.63;;
8500;SDS011;4288;48.484;10.024;2023-04-25T07:05:16;4.73;;;2.97;;
8500;SDS011;4288;48.484;10.024;2023-04-25T07:07:43;10.40;;;5.53;;
8500;SDS011;4288;48.484;10.024;2023-04-25T07:10:10;11.30;;;6.50;;
8500;SDS011;4288;48.484;10.024;2023-04-25T07:12:37;10.47;;;6.33;;
8500;SDS011;4288;48.484;10.024;2023-04-25T07:15:04;11.33;;;6.13;;
8500;SDS011;4288;48.484;10.024;2023-04-25T07:17:33;14.93;;;7.20;;
8500;SDS011;4288;48.484;10.024;2023-04-25T07:20:00;10.97;;;5.63;;
8500;SDS011;4288;48.484;10.024;2023-04-25T07:22:29;10.80;;;5.83;;
8500;SDS011;4288;48.484;10.024;2023-04-25T07:24:56;9.87;;;5.73;;
8500;SDS011;4288;48.484;10.024;2023-04-25T07:27:23;14.27;;;6.00;;
8500;SDS011;4288;48.484;10.024;2023-04-25T07:29:50;17.33;;;7.50;;
8500;SDS011;4288;48.484;10.024;2023-04-25T07:32:17;11.83;;;6.40;;
8500;SDS011;4288;48.484;10.024;2023-04-25T07:34:44;5.30;;;4.27;;
8500;SDS011;4288;48.484;10.024;2023-04-25T07:37:11;9.07;;;5.17;;
8500;SDS011;4288;48.484;10.024;2023-04-25T07:39:40;9.47;;;5.23;;
8500;SDS011;4288;48.484;10.024;2023-04-25T07:42:07;10.13;;;5.37;;
8500;SDS011;4288;48.484;10.024;2023-04-25T07:44:34;8.10;;;5.37;;
8500;SDS011;4288;48.484;10.024;2023-04-25T07:47:04;14.47;;;4.73;;
8500;SDS011;4288;48.484;10.024;2023-04-25T07:49:32;7.93;;;4.37;;
8500;SDS011;4288;48.484;10.024;2023-04-25T07:51:59;9.40;;;4.87;;
8500;SDS011;4288;48.484;10.024;2023-04-25T07:54:26;8.13;;;4.87;;
8500;SDS011;4288;48.484;10.024;2023-04-25T07:56:55;5.30;;;3.63;;
8500;SDS011;4288;48.484;10.024;2023-04-25T07:59:21;6.80;;;4.37;;
8500;SDS011;4288;48.484;10.024;2023-04-25T08:01:48;8.10;;;4.63;;
8500;SDS011;4288;48.484;10.024;2023-04-25T08:04:15;5.07;;;3.80;;
8500;SDS011;4288;48.484;10.024;2023-04-25T08:06:42;7.50;;;4.50;;
8500;SDS011;4288;48.484;10.024;2023-04-25T08:09:10;4.10;;;3.50;;
8500;SDS011;4288;48.484;10.024;2023-04-25T08:11:37;7.23;;;4.33;;
8500;SDS011;4288;48.484;10.024;2023-04-25T08:14:06;8.37;;;4.27;;
8500;SDS011;4288;48.484;10.024;2023-04-25T08:16:33;9.03;;;3.60;;
8500;SDS011;4288;48.484;10.024;2023-04-25T08:19:00;7.20;;;3.77;;
8500;SDS011;4288;48.484;10.024;2023-04-25T08:21:27;5.33;;;4.03;;
8500;SDS011;4288;48.484;10.024;2023-04-25T08:23:53;4.27;;;3.70;;
8500;SDS011;4288;48.484;10.024;2023-04-25T08:26:20;6.13;;;3.57;;
8500;SDS011;4288;48.484;10.024;2023-04-25T08:28:47;4.33;;;2.70;;
8500;SDS011;4288;48.484;10.024;2023-04-25T08:31:16;16.20;;;3.80;;
8500;SDS011;4288;48.484;10.024;2023-04-25T08:33:43;6.10;;;3.33;;
8500;SDS011;4288;48.484;10.024;2023-04-25T08:36:10;8.43;;;1.80;;
8500;SDS011;4288;48.484;10.024;2023-04-25T08:38:37;6.87;;;3.30;;
8500;SDS011;4288;48.484;10.024;2023-04-25T08:41:04;5.30;;;2.57;;
8500;SDS011;4288;48.484;10.024;2023-04-25T08:43:31;3.50;;;2.00;;
8500;SDS011;4288;48.484;10.024;2023-04-25T08:45:59;4.60;;;2.07;;
8500;SDS011;4288;48.484;10.024;2023-04-25T08:48:27;13.03;;;2.40;;
8500;SDS011;4288;48.484;10.024;2023-04-25T08:50:55;11.43;;;1.83;;
8500;SDS011;4288;48.484;10.024;2023-04-25T08:53:25;9.00;;;2.27;;
8500;SDS011;4288;48.484;10.024;2023-04-25T08:55:53;3.00;;;1.77;;
8500;SDS011;4288;48.484;10.024;2023-04-25T08:58:21;2.20;;;1.40;;
8500;SDS011;4288;48.484;10.024;2023-04-25T09:00:49;1.50;;;1.40;;
8500;SDS011;4288;48.484;10.024;2023-04-25T09:03:17;2.93;;;1.20;;
8500;SDS011;4288;48.484;10.024;2023-04-25T09:05:45;3.30;;;1.60;;
8500;SDS011;4288;48.484;10.024;2023-04-25T09:08:12;2.27;;;1.60;;
8500;SDS011;4288;48.484;10.024;2023-04-25T09:10:39;2.17;;;1.37;;
8500;SDS011;4288;48.484;10.024;2023-04-25T09:13:07;2.60;;;1.83;;
8500;SDS011;4288;48.484;10.024;2023-04-25T09:15:46;5.30;;;1.73;;
8500;SDS011;4288;48.484;10.024;2023-04-25T09:18:14;3.80;;;1.90;;
8500;SDS011;4288;48.484;10.024;2023-04-25T09:20:50;2.40;;;1.40;;
8500;SDS011;4288;48.484;10.024;2023-04-25T09:23:19;7.27;;;1.67;;
8500;SDS011;4288;48.484;10.024;2023-04-25T09:25:47;6.03;;;1.90;;
8500;SDS011;4288;48.484;10.024;2023-04-25T09:28:14;2.13;;;1.33;;
8500;SDS011;4288;48.484;10.024;2023-04-25T09:30:41;3.43;;;1.37;;
8500;SDS011;4288;48.484;10.024;2023-04-25T09:33:09;6.40;;;1.60;;
8500;SDS011;4288;48.484;10.024;2023-04-25T09:35:37;2.70;;;1.53;;
8500;SDS011;4288;48.484;10.024;2023-04-25T09:38:10;1.23;;;1.10;;
8500;SDS011;4288;48.484;10.024;2023-04-25T09:40:41;4.47;;;1.20;;
8500;SDS011;4288;48.484;10.024;2023-04-25T09:43:09;2.27;;;1.27;;
8500;SDS011;4288;48.484;10.024;2023-04-25T09:45:43;3.90;;;1.10;;
8500;SDS011;4288;48.484;10.024;2023-04-25T09:48:12;1.53;;;1.10;;
8500;SDS011;4288;48.484;10.024;2023-04-25T09:50:45;3.60;;;1.60;;
8500;SDS011;4288;48.484;10.024;2023-04-25T09:53:13;3.60;;;1.23;;
8500;SDS011;4288;48.484;10.024;2023-04-25T09:55:40;4.70;;;1.10;;
8500;SDS011;4288;48.484;10.024;2023-04-25T09:58:09;1.50;;;1.40;;
8500;SDS011;4288;48.484;10.024;2023-04-25T10:00:37;6.90;;;1.10;;
8500;SDS011;4288;48.484;10.024;2023-04-25T10:03:05;8.53;;;2.20;;
8500;SDS011;4288;48.484;10.024;2023-04-25T10:05:32;2.33;;;1.53;;
8500;SDS011;4288;48.484;10.024;2023-04-25T10:08:02;6.77;;;1.93;;
8500;SDS011;4288;48.484;10.024;2023-04-25T10:10:31;5.93;;;1.90;;
8500;SDS011;4288;48.484;10.024;2023-04-25T10:13:02;6.93;;;1.80;;
8500;SDS011;4288;48.484;10.024;2023-04-25T10:15:30;4.13;;;1.50;;
8500;SDS011;4288;48.484;10.024;2023-04-25T10:17:58;6.90;;;1.70;;
8500;SDS011;4288;48.484;10.024;2023-04-25T10:20:25;30.47;;;1.90;;
8500;SDS011;4288;48.484;10.024;2023-04-25T10:22:52;8.37;;;1.70;;
8500;SDS011;4288;48.484;10.024;2023-04-25T10:25:21;2.13;;;1.40;;
8500;SDS011;4288;48.484;10.024;2023-04-25T10:27:51;4.47;;;1.33;;
8500;SDS011;4288;48.484;10.024;2023-04-25T10:30:18;4.30;;;1.47;;
8500;SDS011;4288;48.484;10.024;2023-04-25T10:32:45;4.87;;;2.40;;
8500;SDS011;4288;48.484;10.024;2023-04-25T10:35:16;3.77;;;1.30;;
8500;SDS011;4288;48.484;10.024;2023-04-25T10:37:59;3.43;;;1.50;;
8500;SDS011;4288;48.484;10.024;2023-04-25T10:40:26;21.60;;;4.40;;
8500;SDS011;4288;48.484;10.024;2023-04-25T10:42:54;119.63;;;22.60;;
8500;SDS011;4288;48.484;10.024;2023-04-25T10:45:22;122.57;;;23.57;;
8500;SDS011;4288;48.484;10.024;2023-04-25T10:47:49;132.10;;;24.40;;
8500;SDS011;4288;48.484;10.024;2023-04-25T10:50:15;117.10;;;22.03;;
8500;SDS011;4288;48.484;10.024;2023-04-25T10:52:42;113.90;;;21.03;;
8500;SDS011;4288;48.484;10.024;2023-04-25T10:55:10;110.87;;;18.00;;
8500;SDS011;4288;48.484;10.024;2023-04-25T10:57:37;121.53;;;22.20;;
8500;SDS011;4288;48.484;10.024;2023-04-25T11:00:12;100.73;;;18.03;;
8500;SDS011;4288;48.484;10.024;2023-04-25T11:02:41;93.77;;;16.20;;
8500;SDS011;4288;48.484;10.024;2023-04-25T11:05:10;86.90;;;15.07;;
8500;SDS011;4288;48.484;10.024;2023-04-25T11:07:38;77.83;;;16.30;;
8500;SDS011;4288;48.484;10.024;2023-04-25T11:10:10;78.77;;;16.60;;
8500;SDS011;4288;48.484;10.024;2023-04-25T11:12:37;88.37;;;15.63;;
8500;SDS011;4288;48.484;10.024;2023-04-25T11:15:04;62.57;;;15.03;;
8500;SDS011;4288;48.484;10.024;2023-04-25T11:17:34;77.63;;;13.50;;
8500;SDS011;4288;48.484;10.024;2023-04-25T11:20:01;73.73;;;14.03;;
8500;SDS011;4288;48.484;10.024;2023-04-25T11:22:31;58.17;;;13.67;;
8500;SDS011;4288;48.484;10.024;2023-04-25T11:25:01;76.97;;;14.50;;
8500;SDS011;4288;48.484;10.024;2023-04-25T11:27:31;84.80;;;13.17;;
8500;SDS011;4288;48.484;10.024;2023-04-25T11:29:58;63.43;;;14.80;;
8500;SDS011;4288;48.484;10.024;2023-04-25T11:32:25;67.73;;;10.77;;
8500;SDS011;4288;48.484;10.024;2023-04-25T11:34:53;50.87;;;10.57;;
8500;SDS011;4288;48.484;10.024;2023-04-25T11:37:21;49.20;;;8.97;;
8500;SDS011;4288;48.484;10.024;2023-04-25T11:39:48;48.43;;;10.63;;
8500;SDS011;4288;48.484;10.024;2023-04-25T11:42:15;60.83;;;11.10;;
8500;SDS011;4288;48.484;10.024;2023-04-25T11:44:42;55.70;;;9.77;;
8500;SDS011;4288;48.484;10.024;2023-04-25T11:47:10;47.80;;;9.37;;
8500;SDS011;4288;48.484;10.024;2023-04-25T11:49:37;39.10;;;9.03;;
8500;SDS011;4288;48.484;10.024;2023-04-25T11:52:05;33.80;;;8.40;;
8500;SDS011;4288;48.484;10.024;2023-04-25T11:54:34;34.33;;;7.80;;
8500;SDS011;4288;48.484;10.024;2023-04-25T11:57:02;25.30;;;7.23;;
8500;SDS011;4288;48.484;10.024;2023-04-25T11:59:29;41.00;;;9.03;;
8500;SDS011;4288;48.484;10.024;2023-04-25T12:01:55;38.50;;;10.23;;
8500;SDS011;4288;48.484;10.024;2023-04-25T12:04:24;30.57;;;7.60;;
8500;SDS011;4288;48.484;10.024;2023-04-25T12:06:51;37.43;;;7.53;;
8500;SDS011;4288;48.484;10.024;2023-04-25T12:09:20;34.67;;;7.70;;
8500;SDS011;4288;48.484;10.024;2023-04-25T12:11:53;34.17;;;7.90;;
8500;SDS011;4288;48.484;10.024;2023-04-25T12:14:21;42.50;;;7.97;;
8500;SDS011;4288;48.484;10.024;2023-04-25T12:16:50;32.83;;;7.43;;
8500;SDS011;4288;48.484;10.024;2023-04-25T12:19:19;27.77;;;6.33;;
8500;SDS011;4288;48.484;10.024;2023-04-25T12:21:46;27.83;;;7.47;;
8500;SDS011;4288;48.484;10.024;2023-04-25T12:24:13;32.10;;;6.53;;
8500;SDS011;4288;48.484;10.024;2023-04-25T12:26:47;19.27;;;5.37;;
8500;SDS011;4288;48.484;10.024;2023-04-25T12:29:16;29.57;;;6.13;;
8500;SDS011;4288;48.484;10.024;2023-04-25T12:31:43;22.37;;;6.33;;
8500;SDS011;4288;48.484;10.024;2023-04-25T12:34:11;25.50;;;6.00;;
8500;SDS011;4288;48.484;10.024;2023-04-25T12:36:38;19.13;;;5.33;;
8500;SDS011;4288;48.484;10.024;2023-04-25T12:39:05;30.10;;;8.53;;
8500;SDS011;4288;48.484;10.024;2023-04-25T12:41:32;31.00;;;6.07;;
8500;SDS011;4288;48.484;10.024;2023-04-25T12:44:01;19.13;;;4.87;;
8500;SDS011;4288;48.484;10.024;2023-04-25T12:46:28;14.53;;;3.53;;
8500;SDS011;4288;48.484;10.024;2023-04-25T12:48:55;16.33;;;5.00;;
8500;SDS011;4288;48.484;10.024;2023-04-25T12:51:22;23.37;;;5.57;;
8500;SDS011;4288;48.484;10.024;2023-04-25T12:53:50;19.30;;;4.03;;
8500;SDS011;4288;48.484;10.024;2023-04-25T12:56:17;15.20;;;4.67;;
8500;SDS011;4288;48.484;10.024;2023-04-25T12:58:44;17.07;;;4.60;;
8500;SDS011;4288;48.484;10.024;2023-04-25T13:01:14;14.87;;;3.97;;
8500;SDS011;4288;48.484;10.024;2023-04-25T13:03:41;17.40;;;4.03;;
8500;SDS011;4288;48.484;10.024;2023-04-25T13:06:08;18.30;;;3.43;;
8500;SDS011;4288;48.484;10.024;2023-04-25T13:08:35;19.47;;;4.40;;
8500;SDS011;4288;48.484;10.024;2023-04-25T13:11:03;17.50;;;4.03;;
8500;SDS011;4288;48.484;10.024;2023-04-25T13:13:30;12.87;;;2.23;;
8500;SDS011;4288;48.484;10.024;2023-04-25T13:15:59;10.90;;;2.30;;
8500;SDS011;4288;48.484;10.024;2023-04-25T13:18:28;9.60;;;3.00;;
8500;SDS011;4288;48.484;10.024;2023-04-25T13:20:55;11.07;;;2.50;;
8500;SDS011;4288;48.484;10.024;2023-04-25T13:23:22;13.73;;;2.90;;
8500;SDS011;4288;48.484;10.024;2023-04-25T13:25:51;15.93;;;2.10;;
8500;SDS011;4288;48.484;10.024;2023-04-25T13:28:18;8.37;;;2.23;;
8500;SDS011;4288;48.484;10.024;2023-04-25T13:30:45;6.00;;;2.10;;
8500;SDS011;4288;48.484;10.024;2023-04-25T13:33:13;8.53;;;2.03;;
8500;SDS011;4288;48.484;10.024;2023-04-25T13:35:41;7.17;;;3.23;;
8500;SDS011;4288;48.484;10.024;2023-04-25T13:38:08;9.00;;;2.67;;
8500;SDS011;4288;48.484;10.024;2023-04-25T13:40:35;8.30;;;2.40;;
8500;SDS011;4288;48.484;10.024;2023-04-25T13:43:02;7.97;;;2.23;;
8500;SDS011;4288;48.484;10.024;2023-04-25T13:45:29;6.50;;;2.63;;
8500;SDS011;4288;48.484;10.024;2023-04-25T13:47:56;4.93;;;2.03;;
8500;SDS011;4288;48.484;10.024;2023-04-25T13:50:23;9.23;;;1.93;;
8500;SDS011;4288;48.484;10.024;2023-04-25T13:52:51;8.70;;;2.67;;
8500;SDS011;4288;48.484;10.024;2023-04-25T13:55:18;43.90;;;3.80;;
8500;SDS011;4288;48.484;10.024;2023-04-25T13:57:45;6.07;;;1.70;;
8500;SDS011;4288;48.484;10.024;2023-04-25T14:00:12;6.10;;;1.57;;
8500;SDS011;4288;48.484;10.024;2023-04-25T14:02:40;6.37;;;2.43;;
8500;SDS011;4288;48.484;10.024;2023-04-25T14:05:07;4.43;;;1.47;;
8500;SDS011;4288;48.484;10.024;2023-04-25T14:07:34;7.57;;;1.87;;
8500;SDS011;4288;48.484;10.024;2023-04-25T14:10:02;1.80;;;1.00;;
8500;SDS011;4288;48.484;10.024;2023-04-25T14:12:30;1.83;;;1.40;;
8500;SDS011;4288;48.484;10.024;2023-04-25T14:14:58;3.20;;;1.20;;
8500;SDS011;4288;48.484;10.024;2023-04-25T14:17:25;1.93;;;1.30;;
8500;SDS011;4288;48.484;10.024;2023-04-25T14:19:51;2.60;;;1.23;;
8500;SDS011;4288;48.484;10.024;2023-04-25T14:22:18;1.83;;;1.00;;
8500;SDS011;4288;48.484;10.024;2023-04-25T14:24:45;3.07;;;1.27;;
8500;SDS011;4288;48.484;10.024;2023-04-25T14:27:13;1.57;;;1.47;;
8500;SDS011;4288;48.484;10.024;2023-04-25T14:29:40;3.33;;;1.00;;
8500;SDS011;4288;48.484;10.024;2023-04-25T14:32:07;2.93;;;1.53;;
8500;SDS011;4288;48.484;10.024;2023-04-25T14:34:35;1.90;;;0.90;;
8500;SDS011;4288;48.484;10.024;2023-04-25T14:37:02;2.90;;;1.40;;
8500;SDS011;4288;48.484;10.024;2023-04-25T14:39:29;6.50;;;1.83;;
8500;SDS011;4288;48.484;10.024;2023-04-25T14:41:55;2.00;;;1.13;;
8500;SDS011;4288;48.484;10.024;2023-04-25T14:44:24;3.57;;;1.17;;
8500;SDS011;4288;48.484;10.024;2023-04-25T14:46:51;2.70;;;1.43;;
8500;SDS011;4288;48.484;10.024;2023-04-25T14:49:17;2.27;;;1.77;;
8500;SDS011;4288;48.484;10.024;2023-04-25T14:51:45;2.77;;;1.30;;
8500;SDS011;4288;48.484;10.024;2023-04-25T14:54:11;3.03;;;1.17;;
8500;SDS011;4288;48.484;10.024;2023-04-25T14:56:39;3.80;;;1.17;;